Time;durP1;ratioP1;P1;durP2;ratioP2;P2;SDS_P1;SDS_P2;PMS_P1;PMS_P2;Temp;Humidity;BMP_temperature;BMP_pressure;BME280_temperature;BME280_humidity;BME280_pressure;Samples;Min_cycle;Max_cycle;Signal;HPM_P1;HPM_P2
2023/03/17 00:01:13;;;;;;;3.28;2.22;;;6.40;68.90;;;;;;5048677;28;20045;-62
2023/03/17 00:03:40;;;;;;;6.00;2.33;;;6.40;69.00;;;;;;5046475;28;20061;-62
2023/03/17 00:06:23;;;;;;;8.32;2.28;;;6.40;69.60;;;;;;5048074;28;20082;-62
2023/03/17 00:08:49;;;;;;;1.98;1.75;;;6.40;69.60;;;;;;5048515;28;20425;-62
2023/03/17 00:11:16;;;;;;;2.95;2.03;;;6.40;70.00;;;;;;5046754;28;20084;-62
2023/03/17 00:13:43;;;;;;;2.33;1.85;;;6.40;70.10;;;;;;5047923;28;20090;-62
2023/03/17 00:16:18;;;;;;;4.68;1.98;;;6.40;70.60;;;;;;5046985;28;20492;-62
2023/03/17 00:18:45;;;;;;;5.80;2.35;;;6.40;70.80;;;;;;5047778;28;20052;-62
2023/03/17 00:21:21;;;;;;;4.10;1.92;;;6.40;71.10;;;;;;5048175;28;20538;-62
2023/03/17 00:23:50;;;;;;;4.97;2.50;;;6.40;71.50;;;;;;5046935;28;20049;-62
2023/03/17 00:26:17;;;;;;;3.35;2.25;;;6.40;72.70;;;;;;5046601;28;20513;-62
2023/03/17 00:28:43;;;;;;;4.60;2.33;;;6.30;71.70;;;;;;5046668;28;20159;-62
2023/03/17 00:31:21;;;;;;;4.35;1.80;;;6.30;71.60;;;;;;5048447;28;20049;-62
2023/03/17 00:33:49;;;;;;;4.82;2.30;;;6.30;71.70;;;;;;5037009;28;20397;-62
2023/03/17 00:36:18;;;;;;;3.13;2.13;;;6.30;71.90;;;;;;5047033;28;20407;-62
2023/03/17 00:38:44;;;;;;;4.32;2.35;;;6.30;72.10;;;;;;5047940;28;20395;-62
2023/03/17 00:41:12;;;;;;;2.17;1.95;;;6.30;71.50;;;;;;5046209;28;20092;-62
2023/03/17 00:43:39;;;;;;;2.20;2.00;;;6.40;71.00;;;;;;5046443;28;20064;-62
2023/03/17 00:46:17;;;;;;;3.22;2.13;;;6.30;71.10;;;;;;5046254;28;20518;-62
2023/03/17 00:48:44;;;;;;;4.65;2.55;;;6.30;72.10;;;;;;5039625;28;20096;-62
2023/03/17 00:51:10;;;;;;;4.30;2.08;;;6.30;71.70;;;;;;5047961;28;20048;-62
2023/03/17 00:53:36;;;;;;;6.22;2.55;;;6.30;71.40;;;;;;5044951;28;20384;-62
2023/03/17 00:56:02;;;;;;;4.70;2.30;;;6.40;71.70;;;;;;5046570;28;20045;-62
2023/03/17 00:58:31;;;;;;;8.35;2.75;;;6.30;71.70;;;;;;5029797;28;20471;-62
2023/03/17 01:00:58;;;;;;;5.38;2.22;;;6.40;72.00;;;;;;5047790;28;20048;-62
2023/03/17 01:03:25;;;;;;;7.10;2.65;;;6.30;72.00;;;;;;5046345;28;20364;-62
2023/03/17 01:05:52;;;;;;;4.60;2.60;;;6.30;72.20;;;;;;5044199;28;20075;-62
2023/03/17 01:08:21;;;;;;;3.00;2.03;;;6.30;72.40;;;;;;5045069;28;20048;-62
2023/03/17 01:10:47;;;;;;;2.65;2.28;;;6.30;72.30;;;;;;5046277;28;20041;-62
2023/03/17 01:13:13;;;;;;;3.60;2.20;;;6.20;73.40;;;;;;5032380;28;20517;-62
2023/03/17 01:15:45;;;;;;;3.47;2.30;;;6.20;74.70;;;;;;5038180;28;20427;-62
2023/03/17 01:18:14;;;;;;;2.90;2.20;;;6.20;75.10;;;;;;5041125;28;20083;-62
2023/03/17 01:20:41;;;;;;;3.92;2.50;;;6.20;76.60;;;;;;5045581;28;20045;-62
2023/03/17 01:23:08;;;;;;;2.78;2.25;;;6.10;77.90;;;;;;5045894;28;20037;-62
2023/03/17 01:25:34;;;;;;;2.60;2.35;;;6.10;78.70;;;;;;5044260;28;20512;-62
2023/03/17 01:28:00;;;;;;;5.78;2.78;;;6.10;80.00;;;;;;5046932;28;20045;-62
2023/03/17 01:30:27;;;;;;;4.65;2.55;;;6.00;80.20;;;;;;5046063;28;20417;-62
2023/03/17 01:32:54;;;;;;;2.72;2.38;;;6.10;80.60;;;;;;5045563;28;20436;-62
2023/03/17 01:35:21;;;;;;;5.45;2.50;;;6.10;79.70;;;;;;5045636;28;20513;-62
2023/03/17 01:37:48;;;;;;;2.92;2.50;;;6.20;79.00;;;;;;5045415;28;20047;-62
2023/03/17 01:40:21;;;;;;;5.93;2.92;;;6.30;77.00;;;;;;5047509;28;20036;-62
2023/03/17 01:42:52;;;;;;;5.22;2.58;;;6.30;74.70;;;;;;5044953;28;20099;-62
2023/03/17 01:45:56;;;;;;;3.33;2.53;;;6.40;73.20;;;;;;5046300;28;20578;-62
2023/03/17 01:48:24;;;;;;;3.10;2.60;;;6.50;72.80;;;;;;5047373;28;20098;-62
2023/03/17 01:50:51;;;;;;;3.92;2.63;;;6.50;70.90;;;;;;5045700;28;20147;-62
2023/03/17 01:53:19;;;;;;;4.47;2.50;;;6.50;70.30;;;;;;5047064;28;20049;-62
2023/03/17 01:55:46;;;;;;;7.40;2.53;;;6.60;70.50;;;;;;5045693;28;20045;-62
2023/03/17 01:58:13;;;;;;;3.47;2.90;;;6.60;69.50;;;;;;5046512;28;20056;-62
2023/03/17 02:00:39;;;;;;;8.18;2.97;;;6.60;69.60;;;;;;5046478;28;20073;-62
2023/03/17 02:03:05;;;;;;;5.60;3.00;;;6.50;69.80;;;;;;5046031;28;20083;-62
2023/03/17 02:05:32;;;;;;;3.20;2.60;;;6.50;70.10;;;;;;5046942;28;20596;-62
2023/03/17 02:07:58;;;;;;;2.47;2.28;;;6.50;70.40;;;;;;5045143;28;20060;-62
2023/03/17 02:10:27;;;;;;;5.03;3.17;;;6.50;70.50;;;;;;5047656;28;20068;-61
2023/03/17 02:12:56;;;;;;;3.08;2.88;;;6.50;70.50;;;;;;5044302;28;20040;-62
2023/03/17 02:15:23;;;;;;;3.13;2.83;;;6.50;71.20;;;;;;5045609;28;20730;-62
2023/03/17 02:17:48;;;;;;;5.75;3.22;;;6.40;71.20;;;;;;5046339;28;20540;-62
2023/03/17 02:20:17;;;;;;;7.32;3.17;;;6.40;71.60;;;;;;5045868;28;20049;-62
2023/03/17 02:22:45;;;;;;;5.30;3.15;;;6.40;72.20;;;;;;5046368;28;20446;-61
2023/03/17 02:25:12;;;;;;;6.20;2.85;;;6.30;72.90;;;;;;5044235;28;20056;-62
2023/03/17 02:27:44;;;;;;;4.15;2.75;;;6.30;73.00;;;;;;5046473;28;20045;-62
2023/03/17 02:30:12;;;;;;;7.82;3.47;;;6.30;73.30;;;;;;5044178;28;20044;-62
2023/03/17 02:32:39;;;;;;;6.60;2.95;;;6.30;73.80;;;;;;5041289;28;20051;-62
2023/03/17 02:35:07;;;;;;;4.75;3.10;;;6.20;75.10;;;;;;5036617;28;20134;-62
2023/03/17 02:37:33;;;;;;;4.35;3.08;;;6.20;75.40;;;;;;5049152;28;20414;-62
2023/03/17 02:40:00;;;;;;;7.47;3.20;;;6.20;76.10;;;;;;5050192;28;20047;-62
2023/03/17 02:42:26;;;;;;;7.10;4.53;;;6.20;76.90;;;;;;5048958;28;20146;-62
2023/03/17 02:44:53;;;;;;;3.55;3.17;;;6.20;78.10;;;;;;5050272;28;20053;-62
2023/03/17 02:47:19;;;;;;;3.40;3.10;;;6.20;79.10;;;;;;5049267;28;20033;-62
2023/03/17 02:49:45;;;;;;;8.93;3.15;;;6.10;79.50;;;;;;5049172;28;20044;-62
2023/03/17 02:52:10;;;;;;;4.45;2.90;;;6.10;80.10;;;;;;5050501;28;20052;-62
2023/03/17 02:54:37;;;;;;;6.18;2.97;;;6.10;80.70;;;;;;5049135;28;20037;-62
2023/03/17 02:57:03;;;;;;;6.05;3.53;;;6.00;81.10;;;;;;5049651;28;20041;-62
2023/03/17 02:59:29;;;;;;;4.18;2.85;;;5.90;81.50;;;;;;5048140;28;20049;-62
2023/03/17 03:01:55;;;;;;;3.00;2.80;;;5.80;82.80;;;;;;5031509;28;20160;-62
2023/03/17 03:04:22;;;;;;;3.63;3.17;;;5.70;84.00;;;;;;5048821;28;20114;-62
2023/03/17 03:06:48;;;;;;;7.97;3.28;;;5.60;85.20;;;;;;5049325;28;20495;-62
2023/03/17 03:09:16;;;;;;;4.32;3.20;;;5.60;86.30;;;;;;5049151;28;20033;-62
2023/03/17 03:11:42;;;;;;;5.22;3.17;;;5.50;87.90;;;;;;5049549;28;20392;-62
2023/03/17 03:14:09;;;;;;;5.18;3.28;;;5.40;90.10;;;;;;5049103;28;20090;-62
2023/03/17 03:16:36;;;;;;;8.80;3.45;;;5.40;90.60;;;;;;5048760;28;20132;-62
2023/03/17 03:19:02;;;;;;;3.10;2.90;;;5.40;90.90;;;;;;5048990;28;20494;-62
2023/03/17 03:21:28;;;;;;;6.85;2.72;;;5.40;91.30;;;;;;5047216;28;20404;-62
2023/03/17 03:23:54;;;;;;;3.83;3.25;;;5.40;91.30;;;;;;5047983;28;20049;-62
2023/03/17 03:26:20;;;;;;;3.55;3.03;;;5.40;91.50;;;;;;5048218;28;20063;-62
2023/03/17 03:28:46;;;;;;;3.63;2.83;;;5.40;91.70;;;;;;5049137;28;20450;-62
2023/03/17 03:31:12;;;;;;;5.95;2.67;;;5.50;91.80;;;;;;5047765;28;20049;-62
2023/03/17 03:33:39;;;;;;;3.05;2.83;;;5.50;91.80;;;;;;5048016;28;20049;-62
2023/03/17 03:36:06;;;;;;;4.57;3.10;;;5.50;91.70;;;;;;5064234;28;20060;-62
2023/03/17 03:38:32;;;;;;;7.35;2.95;;;5.60;91.70;;;;;;5048032;28;20517;-62
2023/03/17 03:40:58;;;;;;;3.72;2.78;;;5.60;91.70;;;;;;5047309;28;20076;-62
2023/03/17 03:43:23;;;;;;;3.47;3.15;;;5.60;91.50;;;;;;5047665;28;20110;-62
2023/03/17 03:45:50;;;;;;;4.90;2.78;;;5.60;91.20;;;;;;5047424;28;20053;-62
2023/03/17 03:48:16;;;;;;;4.45;2.88;;;5.70;91.40;;;;;;5048914;28;20049;-61
2023/03/17 03:50:42;;;;;;;3.53;2.80;;;5.70;91.10;;;;;;5047503;28;20052;-62
2023/03/17 03:53:07;;;;;;;5.82;2.90;;;5.70;91.00;;;;;;5048517;28;20465;-62
2023/03/17 03:55:33;;;;;;;3.45;2.88;;;5.70;91.00;;;;;;5047773;28;20064;-62
2023/03/17 03:57:59;;;;;;;7.57;3.08;;;5.70;90.90;;;;;;5048348;28;20036;-62
2023/03/17 04:00:24;;;;;;;2.40;2.20;;;5.70;90.90;;;;;;5047444;28;20480;-62
2023/03/17 04:02:51;;;;;;;3.63;2.95;;;5.80;90.90;;;;;;5049090;28;20049;-62
2023/03/17 04:05:17;;;;;;;2.72;2.53;;;5.80;90.60;;;;;;5048081;28;20140;-61
2023/03/17 04:07:44;;;;;;;3.90;3.00;;;5.80;90.60;;;;;;5047268;28;20539;-62
2023/03/17 04:10:11;;;;;;;4.20;3.05;;;5.80;90.50;;;;;;5047640;28;20292;-62
2023/03/17 04:12:38;;;;;;;3.42;2.63;;;5.90;90.50;;;;;;5046764;28;20041;-62
2023/03/17 04:15:05;;;;;;;3.97;3.08;;;5.90;90.50;;;;;;5047005;28;20048;-62
2023/03/17 04:17:31;;;;;;;4.30;2.75;;;5.90;90.70;;;;;;5045660;28;20052;-62
2023/03/17 04:19:57;;;;;;;3.90;2.63;;;5.80;90.60;;;;;;5048139;28;20063;-62
2023/03/17 04:22:23;;;;;;;6.50;2.72;;;5.80;90.50;;;;;;5041576;28;20506;-62
2023/03/17 04:24:49;;;;;;;6.07;2.55;;;5.80;90.40;;;;;;5048096;28;20044;-62
2023/03/17 04:27:16;;;;;;;4.15;3.00;;;5.80;90.50;;;;;;5047551;28;20523;-62
2023/03/17 04:29:42;;;;;;;6.35;2.90;;;5.80;90.40;;;;;;5045614;28;20041;-62
2023/03/17 04:32:12;;;;;;;6.75;2.78;;;5.90;90.30;;;;;;5047827;28;20152;-62
2023/03/17 04:34:38;;;;;;;3.38;2.50;;;5.90;90.30;;;;;;5046823;28;20456;-62
2023/03/17 04:37:05;;;;;;;4.18;2.35;;;5.90;90.50;;;;;;5046454;28;20041;-62
2023/03/17 04:39:30;;;;;;;3.85;2.83;;;5.80;90.30;;;;;;5047165;28;20461;-62
2023/03/17 04:41:56;;;;;;;6.85;2.75;;;5.90;90.30;;;;;;5047588;28;20045;-63
2023/03/17 04:44:22;;;;;;;4.55;2.78;;;5.90;89.70;;;;;;5046763;28;20060;-62
2023/03/17 04:46:47;;;;;;;7.15;2.75;;;5.90;89.50;;;;;;5047088;28;20449;-62
2023/03/17 04:49:13;;;;;;;4.63;2.58;;;5.90;89.40;;;;;;5046354;28;20052;-62
2023/03/17 04:51:39;;;;;;;4.70;2.95;;;5.90;89.20;;;;;;5045112;28;20041;-62
2023/03/17 04:54:05;;;;;;;3.53;3.22;;;5.80;89.10;;;;;;5046646;28;20036;-62
2023/03/17 04:56:31;;;;;;;5.45;3.00;;;5.80;89.10;;;;;;5045033;28;20075;-62
2023/03/17 04:58:57;;;;;;;5.28;2.83;;;5.80;89.50;;;;;;5047103;28;20033;-62
2023/03/17 05:01:23;;;;;;;2.92;2.60;;;5.70;90.20;;;;;;5045344;28;20438;-62
2023/03/17 05:03:48;;;;;;;3.70;2.70;;;5.60;90.40;;;;;;5046890;28;20052;-62
2023/03/17 05:06:15;;;;;;;4.30;2.78;;;5.60;90.50;;;;;;5047339;28;20048;-62
2023/03/17 05:08:43;;;;;;;3.05;2.63;;;5.60;90.50;;;;;;5046424;28;20056;-62
2023/03/17 05:11:10;;;;;;;5.00;2.40;;;5.50;90.80;;;;;;5046155;28;20060;-62
2023/03/17 05:13:36;;;;;;;6.38;2.70;;;5.50;91.00;;;;;;5046293;28;20095;-62
2023/03/17 05:16:02;;;;;;;7.90;3.28;;;5.50;91.20;;;;;;5047213;28;20044;-62
2023/03/17 05:18:28;;;;;;;6.78;2.60;;;5.50;91.20;;;;;;5046683;28;20073;-62
2023/03/17 05:20:55;;;;;;;4.72;2.80;;;5.40;91.40;;;;;;5045817;28;20064;-62
2023/03/17 05:23:21;;;;;;;3.15;2.70;;;5.40;91.50;;;;;;5046973;28;20064;-62
2023/03/17 05:25:47;;;;;;;6.82;2.60;;;5.30;91.50;;;;;;5046028;28;20065;-62
2023/03/17 05:28:13;;;;;;;5.28;3.00;;;5.30;92.10;;;;;;5046922;28;20056;-62
2023/03/17 05:30:41;;;;;;;4.53;2.63;;;5.30;92.40;;;;;;5044854;28;20056;-62
2023/03/17 05:33:07;;;;;;;4.05;2.70;;;5.30;92.70;;;;;;5047336;28;20037;-62
2023/03/17 05:35:32;;;;;;;7.75;2.83;;;5.20;92.70;;;;;;5045852;28;20067;-62
2023/03/17 05:37:58;;;;;;;3.25;2.70;;;5.20;93.10;;;;;;5045914;28;20045;-62
2023/03/17 05:40:25;;;;;;;3.80;2.53;;;5.30;94.00;;;;;;5046518;28;20048;-62
2023/03/17 05:42:51;;;;;;;4.72;2.80;;;5.30;94.10;;;;;;5046659;28;20057;-62
2023/03/17 05:45:17;;;;;;;5.80;2.58;;;5.30;94.00;;;;;;5046842;28;20103;-62
2023/03/17 05:47:44;;;;;;;2.65;2.20;;;5.30;93.80;;;;;;5045848;28;20033;-62
2023/03/17 05:50:11;;;;;;;5.28;2.75;;;5.30;93.70;;;;;;5042236;28;20099;-62
2023/03/17 05:52:37;;;;;;;2.53;2.33;;;5.30;93.70;;;;;;5027185;28;20427;-62
2023/03/17 05:55:04;;;;;;;6.32;2.85;;;5.40;93.80;;;;;;5047033;28;20052;-62
2023/03/17 05:57:30;;;;;;;7.95;3.03;;;5.50;93.50;;;;;;5037172;28;20065;-62
2023/03/17 05:59:56;;;;;;;5.25;2.45;;;5.60;93.10;;;;;;5043562;28;20099;-62
2023/03/17 06:02:22;;;;;;;3.38;2.55;;;5.60;92.80;;;;;;5037264;28;20052;-62
2023/03/17 06:04:48;;;;;;;5.63;2.67;;;5.60;92.50;;;;;;5039455;28;20045;-62
2023/03/17 06:07:14;;;;;;;9.38;3.08;;;5.70;92.20;;;;;;5044012;28;20052;-62
2023/03/17 06:09:40;;;;;;;4.72;2.83;;;5.80;92.10;;;;;;5045371;28;20491;-62
2023/03/17 06:12:07;;;;;;;4.22;2.45;;;5.80;91.80;;;;;;5050793;28;20120;-62
2023/03/17 06:14:33;;;;;;;3.45;2.55;;;5.80;91.60;;;;;;5049162;28;20115;-62
2023/03/17 06:16:58;;;;;;;4.25;2.58;;;5.90;91.60;;;;;;5050833;28;20187;-62
2023/03/17 06:19:24;;;;;;;6.53;2.60;;;5.90;91.60;;;;;;5048580;28;20049;-62
2023/03/17 06:21:50;;;;;;;6.15;2.60;;;5.90;91.70;;;;;;5049921;28;20442;-62
2023/03/17 06:24:16;;;;;;;4.10;2.63;;;5.90;92.10;;;;;;5048855;28;20120;-62
2023/03/17 06:26:42;;;;;;;3.25;2.45;;;5.90;92.10;;;;;;5047397;28;20184;-62
2023/03/17 06:29:08;;;;;;;4.22;2.30;;;5.90;92.10;;;;;;5049434;28;20040;-62
2023/03/17 06:31:35;;;;;;;2.95;2.22;;;5.90;91.90;;;;;;5048887;28;20124;-62
2023/03/17 06:34:02;;;;;;;2.65;1.83;;;6.00;91.80;;;;;;5031868;28;20779;-62
2023/03/17 06:36:29;;;;;;;4.70;2.45;;;6.10;91.70;;;;;;5049122;28;20052;-62
2023/03/17 06:38:55;;;;;;;6.88;2.30;;;6.20;91.40;;;;;;5049956;28;20040;-62
2023/03/17 06:41:21;;;;;;;2.35;2.15;;;6.40;90.60;;;;;;5049323;28;20057;-62
2023/03/17 06:43:46;;;;;;;8.55;2.90;;;6.70;90.00;;;;;;5049078;28;20472;-62
2023/03/17 06:46:12;;;;;;;8.57;2.30;;;7.10;86.40;;;;;;5049000;28;20520;-61
2023/03/17 06:48:38;;;;;;;2.38;2.17;;;7.40;81.50;;;;;;5063604;28;20115;-62
2023/03/17 06:51:04;;;;;;;3.83;2.60;;;7.40;78.60;;;;;;5047718;28;20503;-62
2023/03/17 06:53:30;;;;;;;5.38;2.50;;;7.40;77.30;;;;;;5044715;28;20080;-62
2023/03/17 06:55:56;;;;;;;8.10;2.83;;;7.40;76.70;;;;;;5039275;28;20080;-62
2023/03/17 06:58:22;;;;;;;4.03;2.50;;;7.40;77.80;;;;;;5036388;28;20119;-62
2023/03/17 07:00:47;;;;;;;3.33;2.47;;;7.40;79.00;;;;;;5038373;28;20120;-62
2023/03/17 07:03:14;;;;;;;4.75;2.90;;;7.40;79.50;;;;;;5044931;28;20577;-62
2023/03/17 07:05:42;;;;;;;3.08;2.53;;;7.40;80.30;;;;;;5040799;28;20053;-62
2023/03/17 07:08:08;;;;;;;4.57;2.60;;;7.30;79.70;;;;;;5045241;28;20064;-62
2023/03/17 07:10:35;;;;;;;3.58;2.53;;;7.30;79.50;;;;;;5043794;28;20077;-62
2023/03/17 07:13:01;;;;;;;2.22;2.05;;;7.30;77.60;;;;;;5049853;28;20080;-62
2023/03/17 07:15:30;;;;;;;4.32;3.00;;;7.30;77.90;;;;;;5049409;28;20496;-62
2023/03/17 07:17:56;;;;;;;3.53;2.30;;;7.30;78.50;;;;;;5046498;28;20479;-63
2023/03/17 07:20:21;;;;;;;4.43;2.33;;;7.30;78.30;;;;;;5048928;28;20115;-62
2023/03/17 07:22:47;;;;;;;2.50;2.30;;;7.30;78.40;;;;;;5047394;28;20029;-62
2023/03/17 07:25:13;;;;;;;2.95;2.55;;;7.30;79.40;;;;;;5031766;28;20090;-62
2023/03/17 07:27:38;;;;;;;5.03;2.85;;;7.30;80.60;;;;;;5047347;28;20518;-62
2023/03/17 07:30:05;;;;;;;4.70;2.45;;;7.40;82.00;;;;;;5049339;28;20107;-62
2023/03/17 07:32:31;;;;;;;3.08;2.45;;;7.40;81.70;;;;;;5042833;28;20061;-62
2023/03/17 07:34:57;;;;;;;3.47;2.65;;;7.50;80.90;;;;;;5033774;28;20047;-62
2023/03/17 07:37:23;;;;;;;5.00;2.63;;;7.50;80.50;;;;;;5046071;28;20403;-62
2023/03/17 07:39:50;;;;;;;5.30;2.60;;;7.50;79.20;;;;;;5046014;28;20075;-62
2023/03/17 07:42:16;;;;;;;3.30;2.45;;;7.60;79.30;;;;;;5046057;28;20045;-62
2023/03/17 07:44:42;;;;;;;4.15;2.50;;;7.60;78.80;;;;;;5044274;28;20398;-62
2023/03/17 07:47:10;;;;;;;2.70;2.40;;;7.80;80.30;;;;;;5036076;28;20462;-62
2023/03/17 07:49:36;;;;;;;3.20;2.42;;;8.00;82.60;;;;;;5032290;28;20091;-62
2023/03/17 07:52:02;;;;;;;6.45;2.30;;;8.30;79.00;;;;;;5035259;28;20045;-62
2023/03/17 07:54:28;;;;;;;4.10;2.22;;;8.60;73.60;;;;;;5032231;28;20507;-62
2023/03/17 07:56:54;;;;;;;2.83;2.15;;;8.90;70.40;;;;;;5033461;28;20507;-62
2023/03/17 07:59:20;;;;;;;2.00;1.58;;;9.20;67.40;;;;;;5036260;28;20041;-62
2023/03/17 08:01:46;;;;;;;6.00;3.15;;;9.50;64.50;;;;;;5033863;28;20087;-62
2023/03/17 08:04:13;;;;;;;2.10;1.70;;;9.70;63.30;;;;;;5043390;28;20052;-62
2023/03/17 08:06:41;;;;;;;4.60;2.60;;;9.90;59.70;;;;;;5036635;28;20073;-62
2023/03/17 08:09:11;;;;;;;3.30;2.30;;;10.00;59.40;;;;;;5034918;28;20045;-62
2023/03/17 08:11:37;;;;;;;4.47;2.05;;;10.10;58.00;;;;;;5046749;28;20079;-62
2023/03/17 08:14:06;;;;;;;8.05;2.17;;;10.20;57.80;;;;;;5047224;28;20075;-62
2023/03/17 08:16:32;;;;;;;4.03;2.20;;;10.30;57.00;;;;;;5048145;28;20045;-62
2023/03/17 08:18:58;;;;;;;3.33;2.63;;;10.30;58.70;;;;;;5062263;28;20086;-62
2023/03/17 08:21:28;;;;;;;4.30;2.33;;;10.30;55.30;;;;;;5048324;28;20508;-62
2023/03/17 08:23:54;;;;;;;5.25;2.30;;;10.40;55.50;;;;;;5046226;28;20422;-62
2023/03/17 08:26:19;;;;;;;6.68;2.55;;;10.40;55.10;;;;;;5035576;28;20057;-62
2023/03/17 08:28:46;;;;;;;4.40;2.33;;;10.30;57.50;;;;;;5034984;28;20124;-62
2023/03/17 08:31:15;;;;;;;4.65;2.42;;;10.50;57.40;;;;;;5036655;28;20601;-62
2023/03/17 08:33:44;;;;;;;2.42;2.03;;;10.60;56.30;;;;;;5043740;28;20037;-62
2023/03/17 08:36:10;;;;;;;4.43;2.20;;;10.60;54.90;;;;;;5031943;28;20083;-62
2023/03/17 08:38:37;;;;;;;5.88;2.60;;;10.60;54.80;;;;;;5037240;28;20477;-62
2023/03/17 08:41:05;;;;;;;2.25;2.05;;;10.50;52.90;;;;;;5033865;28;20112;-62
2023/03/17 08:43:32;;;;;;;9.00;2.70;;;10.60;56.20;;;;;;5031218;28;20052;-62
2023/03/17 08:46:19;;;;;;;8.18;2.38;;;10.70;55.00;;;;;;5037345;28;20037;-62
2023/03/17 08:48:47;;;;;;;3.05;2.40;;;10.70;55.20;;;;;;5033878;28;20517;-62
2023/03/17 08:51:14;;;;;;;3.03;2.20;;;10.70;54.70;;;;;;5042677;28;20437;-62
2023/03/17 08:53:40;;;;;;;4.57;2.50;;;10.60;56.90;;;;;;5041336;28;20053;-62
2023/03/17 08:56:07;;;;;;;8.45;2.78;;;10.60;56.80;;;;;;5046569;28;20037;-62
2023/03/17 08:58:34;;;;;;;2.47;2.30;;;10.60;57.20;;;;;;5043590;28;20422;-62
2023/03/17 09:01:02;;;;;;;4.93;2.55;;;10.50;56.40;;;;;;5043815;28;20101;-62
2023/03/17 09:03:28;;;;;;;5.53;2.30;;;10.50;58.50;;;;;;5052292;28;20048;-62
2023/03/17 09:05:54;;;;;;;10.48;2.45;;;10.50;58.00;;;;;;5046351;28;20053;-62
2023/03/17 09:08:20;;;;;;;4.78;2.58;;;10.50;59.50;;;;;;5040108;28;20056;-62
2023/03/17 09:10:47;;;;;;;4.82;2.53;;;10.60;60.30;;;;;;5043026;28;20041;-62
2023/03/17 09:13:13;;;;;;;3.35;2.10;;;10.70;59.80;;;;;;5046999;28;20131;-62
2023/03/17 09:15:39;;;;;;;3.05;2.40;;;10.80;57.70;;;;;;5045264;28;20204;-62
2023/03/17 09:18:06;;;;;;;4.93;2.60;;;11.00;57.10;;;;;;5043032;28;20077;-63
2023/03/17 09:20:32;;;;;;;2.35;2.03;;;11.10;55.10;;;;;;5046399;28;20052;-62
2023/03/17 09:22:58;;;;;;;3.90;2.20;;;11.20;54.30;;;;;;5030484;28;20040;-62
2023/03/17 09:25:24;;;;;;;6.80;2.42;;;11.30;53.20;;;;;;5047221;28;20045;-62
2023/03/17 09:27:50;;;;;;;2.90;2.08;;;11.40;53.70;;;;;;5045784;28;20453;-62
2023/03/17 09:30:16;;;;;;;3.83;2.33;;;11.60;54.00;;;;;;5047748;28;20119;-62
2023/03/17 09:32:43;;;;;;;3.47;2.30;;;11.80;52.60;;;;;;5044471;28;20062;-62
2023/03/17 09:35:10;;;;;;;3.65;2.10;;;12.00;52.50;;;;;;5046659;28;20052;-62
2023/03/17 09:37:37;;;;;;;4.60;2.38;;;12.20;54.60;;;;;;5045927;28;20087;-62
2023/03/17 09:40:07;;;;;;;2.25;1.90;;;12.40;51.60;;;;;;5046558;28;20642;-62
2023/03/17 09:42:50;;;;;;;5.90;2.42;;;12.60;49.30;;;;;;5047633;28;20091;-62
2023/03/17 09:45:16;;;;;;;4.47;2.38;;;12.80;49.80;;;;;;5051251;28;20138;-62
2023/03/17 09:47:52;;;;;;;1.75;1.65;;;12.80;46.00;;;;;;5031407;28;20418;-62
2023/03/17 09:50:30;;;;;;;5.47;2.85;;;12.90;43.20;;;;;;5048784;28;20045;-62
2023/03/17 09:52:58;;;;;;;2.67;2.10;;;12.80;44.20;;;;;;5050473;28;20053;-62
2023/03/17 09:55:27;;;;;;;2.20;2.00;;;12.80;43.40;;;;;;5050818;28;20037;-62
2023/03/17 09:57:55;;;;;;;5.60;2.03;;;12.70;44.10;;;;;;5036395;28;20434;-62
2023/03/17 10:00:26;;;;;;;2.60;1.88;;;12.70;43.50;;;;;;5035693;28;20046;-62
2023/03/17 10:02:53;;;;;;;4.45;2.15;;;12.80;44.70;;;;;;5042806;28;20075;-62
2023/03/17 10:05:35;;;;;;;2.35;1.90;;;13.00;45.10;;;;;;5041412;28;20480;-62
2023/03/17 10:08:15;;;;;;;9.90;2.75;;;13.20;44.40;;;;;;5041713;28;20539;-62
2023/03/17 10:10:56;;;;;;;5.63;2.03;;;13.30;40.80;;;;;;5043664;28;20425;-62
2023/03/17 10:13:51;;;;;;;5.22;2.20;;;13.30;40.30;;;;;;5050687;28;20071;-62
2023/03/17 10:16:45;;;;;;;4.82;2.40;;;13.40;40.80;;;;;;5048059;28;20422;-62
2023/03/17 10:19:39;;;;;;;3.33;2.42;;;13.50;40.90;;;;;;4998961;28;20053;-62
2023/03/17 10:22:22;;;;;;;5.00;2.15;;;13.60;38.80;;;;;;5037032;28;20053;-62
2023/03/17 10:24:56;;;;;;;5.95;3.28;;;13.70;42.50;;;;;;5063524;28;20044;-62
2023/03/17 10:27:22;;;;;;;1.70;1.58;;;13.90;44.80;;;;;;5034537;28;20092;-62
2023/03/17 10:29:48;;;;;;;4.53;3.25;;;13.90;39.50;;;;;;5045041;28;20049;-62
2023/03/17 10:32:14;;;;;;;5.78;2.15;;;14.00;38.70;;;;;;5052345;28;20059;-62
2023/03/17 10:34:40;;;;;;;5.18;2.78;;;14.00;39.70;;;;;;5047665;28;20056;-62
2023/03/17 10:37:18;;;;;;;4.40;2.28;;;14.10;38.80;;;;;;5046918;28;20044;-62
2023/03/17 10:39:56;;;;;;;3.97;2.80;;;14.20;41.00;;;;;;5035067;28;20434;-62
2023/03/17 10:42:31;;;;;;;4.28;2.28;;;14.20;39.90;;;;;;5031948;28;20057;-62
2023/03/17 10:45:12;;;;;;;5.53;2.72;;;14.30;39.00;;;;;;5049306;28;20052;-62
2023/03/17 10:47:43;;;;;;;6.63;2.78;;;14.40;37.70;;;;;;5043956;28;20056;-62
2023/03/17 10:50:15;;;;;;;5.97;2.83;;;14.40;37.60;;;;;;5032429;28;20087;-62
2023/03/17 10:52:41;;;;;;;13.13;2.60;;;14.50;40.50;;;;;;5031420;28;20068;-62
2023/03/17 10:55:12;;;;;;;5.95;2.88;;;14.60;38.60;;;;;;5032594;28;20041;-62
2023/03/17 10:57:38;;;;;;;4.68;2.75;;;14.70;37.30;;;;;;5031518;28;20091;-61
2023/03/17 11:00:18;;;;;;;5.40;2.67;;;14.70;40.10;;;;;;5033423;28;20080;-62
2023/03/17 11:02:57;;;;;;;;;;;14.70;35.50;;;;;;5058362;28;20068;-62
2023/03/17 11:05:26;;;;;;;9.15;2.75;;;14.80;38.60;;;;;;5031205;28;19925;-62
2023/03/17 11:08:06;;;;;;;5.63;3.10;;;14.90;38.50;;;;;;5046337;28;20076;-62
2023/03/17 11:10:37;;;;;;;8.00;3.45;;;15.00;37.30;;;;;;5043557;28;20080;-62
2023/03/17 11:13:03;;;;;;;2.78;2.53;;;15.10;36.50;;;;;;5049269;28;20044;-62
2023/03/17 11:15:35;;;;;;;4.57;2.85;;;15.20;36.70;;;;;;5047251;28;20053;-62
2023/03/17 11:18:20;;;;;;;3.97;2.55;;;15.30;34.60;;;;;;5048611;28;20041;-62
2023/03/17 11:20:55;;;;;;;8.32;2.95;;;15.30;32.50;;;;;;5030161;28;20044;-62
2023/03/17 11:23:47;;;;;;;4.05;2.72;;;15.40;36.70;;;;;;5049203;28;20049;-62
2023/03/17 11:26:26;;;;;;;5.50;3.03;;;15.50;34.70;;;;;;5048427;28;20053;-62
2023/03/17 11:29:27;;;;;;;2.60;2.28;;;15.60;32.20;;;;;;5047743;28;20053;-62
2023/03/17 11:31:59;;;;;;;11.70;3.47;;;15.70;32.50;;;;;;5046612;28;20107;-62
2023/03/17 11:34:34;;;;;;;5.30;2.45;;;15.80;35.00;;;;;;5048861;28;20056;-62
2023/03/17 11:37:22;;;;;;;8.45;3.25;;;15.90;31.70;;;;;;5047875;28;20440;-62
2023/03/17 11:40:08;;;;;;;6.32;3.05;;;15.80;29.10;;;;;;5049214;28;20503;-62
2023/03/17 11:42:58;;;;;;;3.97;3.00;;;15.80;33.30;;;;;;5039537;28;20045;-62
2023/03/17 11:45:39;;;;;;;4.03;3.08;;;15.90;33.50;;;;;;5035461;28;20033;-62
2023/03/17 11:48:04;;;;;;;3.50;2.58;;;16.00;31.50;;;;;;5049041;28;20079;-62
2023/03/17 11:50:54;;;;;;;6.50;2.80;;;16.00;32.20;;;;;;5047604;28;20073;-62
2023/03/17 11:53:40;;;;;;;6.22;3.15;;;16.10;28.30;;;;;;5048519;28;20033;-63
2023/03/17 11:56:17;;;;;;;7.32;2.90;;;16.20;30.50;;;;;;5038203;28;20049;-62
2023/03/17 11:58:52;;;;;;;5.00;3.42;;;16.30;28.90;;;;;;5045916;28;20048;-62
2023/03/17 12:01:26;;;;;;;7.38;3.33;;;16.30;27.40;;;;;;5046142;28;20048;-62
2023/03/17 12:04:36;;;;;;;10.02;3.13;;;16.30;27.00;;;;;;5041948;28;20033;-63
2023/03/17 12:07:33;;;;;;;9.00;3.17;;;16.20;26.80;;;;;;5019024;28;20466;-62
2023/03/17 12:10:23;;;;;;;5.72;3.42;;;16.20;29.30;;;;;;4991873;28;20092;-62
2023/03/17 12:13:01;;;;;;;5.43;3.33;;;16.30;28.10;;;;;;5043901;28;20048;-62
2023/03/17 12:15:33;;;;;;;6.32;3.25;;;16.30;28.40;;;;;;5047925;28;20143;-62
2023/03/17 12:18:09;;;;;;;8.75;3.33;;;16.30;26.70;;;;;;5039854;28;20140;-62
2023/03/17 12:20:50;;;;;;;5.40;3.08;;;16.40;27.20;;;;;;5033736;28;20483;-62
2023/03/17 12:23:28;;;;;;;8.25;4.10;;;16.60;29.20;;;;;;5031001;28;20128;-62
2023/03/17 12:26:15;;;;;;;5.15;3.13;;;16.70;28.30;;;;;;5035328;28;20372;-62
2023/03/17 12:28:59;;;;;;;7.70;3.65;;;16.80;27.40;;;;;;5031608;28;20132;-62
2023/03/17 12:31:31;;;;;;;4.50;2.90;;;16.90;25.60;;;;;;5032529;28;20041;-62
2023/03/17 12:34:03;;;;;;;7.82;3.50;;;17.00;26.50;;;;;;5035797;28;20049;-62
2023/03/17 12:36:30;;;;;;;7.55;3.53;;;17.00;26.00;;;;;;5044251;28;20446;-62
2023/03/17 12:38:55;;;;;;;9.75;4.03;;;17.00;27.70;;;;;;5046921;28;20131;-61
2023/03/17 12:41:33;;;;;;;5.90;3.63;;;17.20;26.00;;;;;;5032551;28;20087;-61
2023/03/17 12:44:38;;;;;;;6.53;3.40;;;17.20;25.70;;;;;;5034519;28;20122;-61
2023/03/17 12:47:35;;;;;;;6.10;3.55;;;17.20;25.40;;;;;;5033381;28;20049;-61
2023/03/17 12:50:27;;;;;;;8.10;3.42;;;17.40;26.10;;;;;;5036017;28;20102;-61
2023/03/17 12:53:18;;;;;;;9.55;4.10;;;17.20;23.20;;;;;;5037473;28;20053;-62
2023/03/17 12:55:46;;;;;;;6.57;4.00;;;16.90;22.60;;;;;;5039639;28;20041;-62
2023/03/17 12:58:47;;;;;;;7.65;4.28;;;16.70;25.80;;;;;;5043550;28;20155;-62
2023/03/17 13:01:45;;;;;;;8.45;3.45;;;16.70;26.50;;;;;;5028760;28;20068;-61
2023/03/17 13:04:36;;;;;;;5.47;3.47;;;16.70;27.20;;;;;;5039511;28;20103;-61
2023/03/17 13:07:11;;;;;;;8.10;3.50;;;16.70;27.20;;;;;;5035522;28;20116;-61